• Join FlightAware (Why Join?)
  • Login
  • US Flag 
06:13PM EDT


 

Airport Tracker/Info


-or-


 

Live Flight TrackerFlight Track Log ✈ SWA2855 ✈ 24-Apr-2013 ✈ KBWI - KCMH

Flight Track Log - Related Links

Times and Time Zones

All times are in EDT time to prevent confusion due to time zone crossing. See the SWA2855 flight status page for this flight to view local times or setup timezone preferences in your user account.

Time Position Orientation Groundspeed Altitude Reporting Facility
EDT Latitude Longitude Course Direction KTS MPH feet Rate Location/Type
06:22AM 39.1333 -76.6500 270° West 186 214 2,000  Level Potomac TRACON
06:23AM 39.1333 -76.7000 270° West 202 232 5,100 3,000 Climbing Potomac TRACON
06:24AM 39.1500 -76.7833 284° West 247 284 8,100 3,540 Climbing Potomac TRACON
06:25AM 39.1833 -76.8833 293° West 273 314 12,200 3,900 Climbing Potomac TRACON
06:26AM 39.2167 -76.9667 297° West 263 303 16,000 2,460 Climbing Potomac TRACON
06:28AM 39.1256 -77.2103 244° Southwest 335 386 20,400 2,160 Climbing Washington Center
06:29AM 39.1050 -77.3408 259° West 360 414 23,100 2,280 Climbing Washington Center
06:30AM 39.0842 -77.4742 259° West 373 429 25,000 1,980 Climbing Washington Center
06:31AM 39.0633 -77.6019 258° West 399 459 27,100 2,220 Climbing Washington Center
06:32AM 39.0400 -77.7508 259° West 399 459 29,500 1,440 Climbing Washington Center
06:33AM 39.0164 -77.8944 258° West 399 459 30,000 240 Climbing Washington Center
06:34AM 38.9931 -78.0247 257° West 415 478 30,000  Level Washington Center
06:35AM 38.9692 -78.1708 258° West 422 486 30,000  Level Washington Center
06:36AM 38.9639 -78.3200 267° West 422 486 30,000  Level Washington Center
06:37AM 38.9689 -78.4617 273° West 417 480 30,000  Level Washington Center
06:38AM 38.9736 -78.6061 272° West 417 480 30,000  Level Washington Center
06:39AM 38.9761 -78.7531 271° West 417 480 30,000  Level Washington Center
06:40AM 38.9806 -78.8975 272° West 417 480 30,000  Level Washington Center
06:41AM 38.9847 -79.0419 272° West 417 480 30,000  Level Washington Center
06:42AM 38.9889 -79.1864 272° West 411 473 30,000  Level Washington Center
06:43AM 38.9931 -79.3281 272° West 405 466 30,000  Level Washington Center
06:44AM 38.9967 -79.4725 272° West 405 466 30,000  Level Washington Center
06:45AM 39.0083 -79.6228 276° West 411 473 30,000  Level Washington Center
06:46AM 39.0217 -79.7811 276° West 411 473 30,000  Level Washington Center
06:47AM 39.0325 -79.8914 277° West 411 473 30,000  Level Washington Center
06:50AM 39.0611 -80.2444 276° West 402 463 30,000  Level Indianapolis Center
06:51AM 39.0733 -80.3867 276° West 402 463 30,000  Level Indianapolis Center
06:52AM 39.0858 -80.5281 277° West 399 459 30,000 -300 Level Indianapolis Center
06:53AM 39.0958 -80.6694 275° West 399 459 29,400 -840 Descending Indianapolis Center
06:54AM 39.1097 -80.8106 277° West 398 458 28,400 -1,020 Descending Indianapolis Center
06:55AM 39.1239 -80.9503 277° West 395 455 27,400 -1,080 Descending Indianapolis Center
06:56AM 39.1406 -81.1181 277° West 396 456 26,300 -1,080 Descending Indianapolis Center
06:57AM 39.1556 -81.2592 278° West 400 460 25,300 -1,020 Descending Indianapolis Center
06:58AM 39.1697 -81.3831 278° West 353 406 24,300 -1,320 Descending Indianapolis Center
06:59AM 39.1842 -81.4936 280° West 318 366 22,600 -1,680 Descending Indianapolis Center
07:00AM 39.2208 -81.5939 295° West 321 369 21,000 -1,320 Descending Indianapolis Center
07:01AM 39.2731 -81.6994 303° West 346 398 20,000 -540 Descending Indianapolis Center
07:02AM 39.3244 -81.8039 302° West 346 398 20,000  Level Indianapolis Center
07:03AM 39.3744 -81.9058 302° West 337 388 20,000 -480 Level Indianapolis Center
07:04AM 39.4247 -82.0103 302° West 344 396 19,100 -1,560 Descending Indianapolis Center
07:05AM 39.4731 -82.1100 302° West 330 380 16,900 -2,400 Descending Indianapolis Center
07:06AM 39.5231 -82.2125 302° West 316 364 14,300 -2,580 Descending Indianapolis Center
07:06AM 39.5519 -82.2753 301° West 305 351 12,900 -2,220 Descending Indianapolis Center
07:07AM 39.5664 -82.3061 301° West 302 348 12,100 -1,380 Descending Indianapolis Center
07:07AM 39.6103 -82.3464 325° Northwest 299 344 11,500 -1,200 Descending Indianapolis Center
07:08AM 39.6369 -82.3622 335° Northwest 294 338 10,900 -1,560 Descending Indianapolis Center
07:09AM 39.6867 -82.3950 333° Northwest 282 325 9,800 -1,620 Descending Indianapolis Center
07:09AM 39.7069 -82.4083 333° Northwest 282 325 9,300 -1,800 Descending Indianapolis Center
07:09AM 39.7511 -82.4369 334° Northwest 274 315 8,200 -1,620 Descending Indianapolis Center
07:10AM 39.7756 -82.4531 333° Northwest 275 316 7,700 -1,620 Descending Indianapolis Center
07:11AM 39.8272 -82.4886 332° Northwest 273 314 6,400 -1,680 Descending Indianapolis Center
07:11AM 39.8444 -82.4975 338° Northwest 275 316 6,000 -1,140 Descending Indianapolis Center
07:12AM 39.8936 -82.5283 334° Northwest 263 303 5,300 -1,320 Descending Indianapolis Center
07:12AM 39.9078 -82.5386 331° Northwest 257 296 4,700 -1,320 Descending Indianapolis Center
07:13AM 39.9581 -82.5706 334° Northwest 255 293 4,000 -840 Descending Indianapolis Center
07:13AM 39.9725 -82.5803 333° Northwest 256 295 3,900  Descending Indianapolis Center
07:14AM 39.9792 -82.6328 279° West 187 215 4,000 60 Climbing Indianapolis Center
07:14AM 39.9811 -82.6494 279° West 210 242 4,000 -660 Level Indianapolis Center
07:15AM 39.9844 -82.7122 274° West 187 215 3,300 -1,140 Descending Indianapolis Center
07:15AM 39.9853 -82.7294 274° West 196 226 2,900 -780 Descending Indianapolis Center
07:16AM 39.9875 -82.7589 276° West 157 181 2,600 -720 Descending Indianapolis Center
07:16AM 39.9883 -82.7803 273° West 161 185 2,200 -840 Descending Indianapolis Center
07:17AM 39.9903 -82.8108 275° West 130 150 1,800 -720 Descending Indianapolis Center
07:17AM 39.9903 -82.8269 270° West 138 159 1,500 -720 Descending Indianapolis Center
07:18AM 39.9919 -82.8492 276° West 125 144 1,200 -300 Descending Indianapolis Center
07:18AM 39.9928 -82.8761 272° West 133 153 1,200  Level Indianapolis Center
07:20AM 39.9833 -82.8833 287° West  Level FlightAware Approximate